N931EC KHMP-KSVH
Flight info
| Callsign | N931EC |
|---|---|
| Flight time | 0h 49m |
| Altitude | 33000 |
| Route | EAONE SPA BZM |
| Aircraft | C700/M-SBDGHM1RWXY/LB2 |
Departure
| Time | 2026-05-07 01:06 |
|---|---|
| Airport | Atlanta Speedway Airport (KHMP) |
Arrival
| Time | 2026-05-07 01:56 |
|---|---|
| Airport | Statesville Regional Airport (KSVH) |
| Time | Latitude | Longitude | Altitude | Speed | Heading |
|---|---|---|---|---|---|
| 2026-05-07 00:58 | 33.38983 | -84.32786 | 873 ft | 0 kts | 89° |
| 2026-05-07 01:00 | 33.38982 | -84.32785 | 873 ft | 0 kts | 94° |
| 2026-05-07 01:00 | 33.38980 | -84.32782 | 873 ft | 1 kts | 134° |
| 2026-05-07 01:00 | 33.38984 | -84.32800 | 873 ft | 5 kts | 337° |
| 2026-05-07 01:00 | 33.39001 | -84.32800 | 873 ft | 5 kts | 20° |
| 2026-05-07 01:01 | 33.39027 | -84.32808 | 874 ft | 4 kts | 282° |
| 2026-05-07 01:01 | 33.39008 | -84.32852 | 873 ft | 11 kts | 239° |
| 2026-05-07 01:01 | 33.38992 | -84.32887 | 873 ft | 2 kts | 266° |
| 2026-05-07 01:01 | 33.39005 | -84.32867 | 873 ft | 9 kts | 77° |
| 2026-05-07 01:02 | 33.39049 | -84.32782 | 875 ft | 12 kts | 56° |
| 2026-05-07 01:02 | 33.39099 | -84.32698 | 877 ft | 13 kts | 54° |
| 2026-05-07 01:02 | 33.39149 | -84.32615 | 880 ft | 12 kts | 54° |
| 2026-05-07 01:02 | 33.39201 | -84.32528 | 881 ft | 14 kts | 54° |
| 2026-05-07 01:03 | 33.39261 | -84.32424 | 882 ft | 16 kts | 56° |
| 2026-05-07 01:03 | 33.39324 | -84.32325 | 884 ft | 15 kts | 40° |
| 2026-05-07 01:03 | 33.39361 | -84.32322 | 883 ft | 0 kts | 331° |
| 2026-05-07 01:05 | 33.39399 | -84.32353 | 879 ft | 14 kts | 320° |
| 2026-05-07 01:05 | 33.39410 | -84.32403 | 883 ft | 0 kts | 232° |
| 2026-05-07 01:06 | 33.39249 | -84.32669 | 881 ft | 91 kts | 233° |
| 2026-05-07 01:06 | 33.38736 | -84.33591 | 998 ft | 169 kts | 236° |
| 2026-05-07 01:06 | 33.38142 | -84.34693 | 2435 ft | 171 kts | 237° |
| 2026-05-07 01:07 | 33.37401 | -84.36092 | 3083 ft | 206 kts | 236° |
| 2026-05-07 01:07 | 33.36653 | -84.37573 | 3187 ft | 206 kts | 237° |
| 2026-05-07 01:07 | 33.35941 | -84.39009 | 3403 ft | 199 kts | 237° |
| 2026-05-07 01:07 | 33.35243 | -84.40397 | 4667 ft | 202 kts | 237° |
| 2026-05-07 01:08 | 33.34497 | -84.41878 | 4995 ft | 205 kts | 236° |
| 2026-05-07 01:08 | 33.33478 | -84.42963 | 4991 ft | 197 kts | 203° |
| 2026-05-07 01:08 | 33.32086 | -84.42940 | 5190 ft | 215 kts | 165° |
| 2026-05-07 01:08 | 33.30699 | -84.42275 | 6528 ft | 216 kts | 166° |
| 2026-05-07 01:09 | 33.29290 | -84.41607 | 7815 ft | 219 kts | 165° |
| 2026-05-07 01:09 | 33.27894 | -84.40902 | 9098 ft | 222 kts | 165° |
| 2026-05-07 01:09 | 33.26455 | -84.40155 | 10302 ft | 227 kts | 165° |
| 2026-05-07 01:09 | 33.24995 | -84.39370 | 11434 ft | 232 kts | 165° |
| 2026-05-07 01:10 | 33.23507 | -84.38569 | 12554 ft | 236 kts | 165° |
| 2026-05-07 01:10 | 33.22040 | -84.37610 | 13647 ft | 251 kts | 149° |
| 2026-05-07 01:10 | 33.20882 | -84.35848 | 13965 ft | 288 kts | 121° |
| 2026-05-07 01:10 | 33.20506 | -84.33527 | 13962 ft | 290 kts | 90° |
| 2026-05-07 01:11 | 33.21109 | -84.31228 | 13963 ft | 301 kts | 58° |
| 2026-05-07 01:11 | 33.22465 | -84.29161 | 13990 ft | 332 kts | 46° |
| 2026-05-07 01:11 | 33.24105 | -84.27003 | 13993 ft | 367 kts | 45° |
| 2026-05-07 01:11 | 33.25915 | -84.24697 | 14000 ft | 402 kts | 45° |
| 2026-05-07 01:12 | 33.27930 | -84.22162 | 14001 ft | 430 kts | 44° |
| 2026-05-07 01:12 | 33.30012 | -84.19560 | 13999 ft | 435 kts | 44° |
| 2026-05-07 01:12 | 33.32114 | -84.16932 | 13989 ft | 437 kts | 44° |
| 2026-05-07 01:12 | 33.34215 | -84.14307 | 13983 ft | 438 kts | 44° |
| 2026-05-07 01:13 | 33.36330 | -84.11662 | 13980 ft | 437 kts | 44° |
| 2026-05-07 01:13 | 33.38404 | -84.09070 | 14122 ft | 433 kts | 44° |
| 2026-05-07 01:13 | 33.40499 | -84.06446 | 14918 ft | 446 kts | 44° |
| 2026-05-07 01:13 | 33.42657 | -84.03722 | 14952 ft | 442 kts | 44° |
| 2026-05-07 01:14 | 33.44760 | -84.01041 | 14936 ft | 442 kts | 44° |
| 2026-05-07 01:14 | 33.46851 | -83.98372 | 14936 ft | 444 kts | 44° |
| 2026-05-07 01:14 | 33.48943 | -83.95692 | 15484 ft | 432 kts | 44° |
| 2026-05-07 01:14 | 33.50922 | -83.93131 | 17702 ft | 403 kts | 43° |
| 2026-05-07 01:15 | 33.52755 | -83.90668 | 19588 ft | 394 kts | 43° |
| 2026-05-07 01:15 | 33.54584 | -83.88139 | 20468 ft | 408 kts | 43° |
| 2026-05-07 01:15 | 33.56439 | -83.85572 | 21502 ft | 412 kts | 41° |
| 2026-05-07 01:15 | 33.58465 | -83.83120 | 22490 ft | 417 kts | 37° |
| 2026-05-07 01:16 | 33.60546 | -83.80632 | 23427 ft | 426 kts | 39° |
| 2026-05-07 01:16 | 33.62571 | -83.77970 | 24245 ft | 435 kts | 41° |
| 2026-05-07 01:16 | 33.64605 | -83.75259 | 25068 ft | 440 kts | 40° |
| 2026-05-07 01:16 | 33.66719 | -83.72579 | 25914 ft | 445 kts | 39° |
| 2026-05-07 01:17 | 33.68850 | -83.69906 | 26736 ft | 451 kts | 39° |
| 2026-05-07 01:17 | 33.71002 | -83.67128 | 27494 ft | 458 kts | 40° |
| 2026-05-07 01:17 | 33.73177 | -83.64294 | 28254 ft | 464 kts | 40° |
| 2026-05-07 01:17 | 33.75391 | -83.61452 | 29007 ft | 469 kts | 40° |
| 2026-05-07 01:18 | 33.77645 | -83.58570 | 29807 ft | 475 kts | 40° |
| 2026-05-07 01:18 | 33.79914 | -83.55642 | 30506 ft | 481 kts | 40° |
| 2026-05-07 01:18 | 33.82206 | -83.52676 | 31108 ft | 487 kts | 40° |
| 2026-05-07 01:18 | 33.84524 | -83.49684 | 31675 ft | 493 kts | 39° |
| 2026-05-07 01:19 | 33.86879 | -83.46647 | 32238 ft | 499 kts | 39° |
| 2026-05-07 01:19 | 33.89262 | -83.43564 | 32797 ft | 504 kts | 39° |
| 2026-05-07 01:19 | 33.91682 | -83.40435 | 32993 ft | 518 kts | 39° |
| 2026-05-07 01:19 | 33.94176 | -83.37214 | 33002 ft | 536 kts | 40° |
| 2026-05-07 01:20 | 33.96720 | -83.33912 | 33004 ft | 551 kts | 40° |
| 2026-05-07 01:20 | 34.01980 | -83.27057 | 32997 ft | 557 kts | 40° |
| 2026-05-07 01:21 | 34.07232 | -83.20234 | 32991 ft | 555 kts | 40° |
| 2026-05-07 01:21 | 34.12506 | -83.13357 | 32978 ft | 558 kts | 40° |
| 2026-05-07 01:22 | 34.17771 | -83.06474 | 32970 ft | 556 kts | 40° |
| 2026-05-07 01:22 | 34.22999 | -82.99633 | 32972 ft | 553 kts | 41° |
| 2026-05-07 01:23 | 34.28229 | -82.92777 | 32969 ft | 556 kts | 41° |
| 2026-05-07 01:23 | 34.33449 | -82.85912 | 32995 ft | 557 kts | 41° |
| 2026-05-07 01:24 | 34.38706 | -82.78992 | 33024 ft | 554 kts | 41° |
| 2026-05-07 01:24 | 34.43876 | -82.72172 | 33028 ft | 553 kts | 41° |
| 2026-05-07 01:25 | 34.49074 | -82.65297 | 33033 ft | 538 kts | 41° |
| 2026-05-07 01:25 | 34.51544 | -82.62005 | 32062 ft | 524 kts | 41° |
| 2026-05-07 01:25 | 34.54023 | -82.58742 | 30507 ft | 528 kts | 42° |
| 2026-05-07 01:25 | 34.56508 | -82.55468 | 29018 ft | 527 kts | 42° |
| 2026-05-07 01:26 | 34.58131 | -82.53298 | 28399 ft | 516 kts | 43° |
| 2026-05-07 01:26 | 34.60508 | -82.50114 | 27216 ft | 506 kts | 42° |
| 2026-05-07 01:26 | 34.62871 | -82.46985 | 26080 ft | 498 kts | 42° |
| 2026-05-07 01:26 | 34.65199 | -82.43902 | 25001 ft | 490 kts | 42° |
| 2026-05-07 01:27 | 34.67472 | -82.40866 | 23963 ft | 483 kts | 42° |
| 2026-05-07 01:27 | 34.69729 | -82.37849 | 22812 ft | 476 kts | 41° |
| 2026-05-07 01:27 | 34.71939 | -82.34906 | 21739 ft | 466 kts | 41° |
| 2026-05-07 01:27 | 34.74103 | -82.32015 | 20695 ft | 457 kts | 42° |
| 2026-05-07 01:28 | 34.76199 | -82.29214 | 19698 ft | 449 kts | 42° |
| 2026-05-07 01:28 | 34.78305 | -82.26395 | 18711 ft | 441 kts | 42° |
| 2026-05-07 01:28 | 34.80353 | -82.23657 | 17678 ft | 433 kts | 42° |
| 2026-05-07 01:28 | 34.82364 | -82.20962 | 17025 ft | 426 kts | 43° |
| 2026-05-07 01:29 | 34.84373 | -82.18276 | 17022 ft | 448 kts | 43° |
| 2026-05-07 01:29 | 34.86511 | -82.15422 | 17027 ft | 449 kts | 43° |
| 2026-05-07 01:29 | 34.88579 | -82.12621 | 17031 ft | 453 kts | 43° |
| 2026-05-07 01:29 | 34.90728 | -82.09731 | 17031 ft | 454 kts | 43° |
| 2026-05-07 01:30 | 34.92843 | -82.06893 | 17024 ft | 452 kts | 43° |
| 2026-05-07 01:30 | 34.94957 | -82.04046 | 17021 ft | 453 kts | 43° |
| 2026-05-07 01:30 | 34.97040 | -82.01242 | 17022 ft | 455 kts | 43° |
| 2026-05-07 01:30 | 34.99191 | -81.98410 | 17019 ft | 450 kts | 38° |
| 2026-05-07 01:31 | 35.01705 | -81.96282 | 17008 ft | 436 kts | 21° |
| 2026-05-07 01:31 | 35.04449 | -81.94766 | 16997 ft | 433 kts | 15° |
| 2026-05-07 01:31 | 35.07265 | -81.93423 | 16995 ft | 433 kts | 14° |
| 2026-05-07 01:31 | 35.10077 | -81.92156 | 16990 ft | 431 kts | 13° |
| 2026-05-07 01:32 | 35.12906 | -81.90908 | 16985 ft | 430 kts | 13° |
| 2026-05-07 01:32 | 35.15629 | -81.89701 | 16778 ft | 403 kts | 13° |
| 2026-05-07 01:32 | 35.18227 | -81.88533 | 16186 ft | 386 kts | 13° |
| 2026-05-07 01:32 | 35.20660 | -81.87431 | 16091 ft | 359 kts | 13° |
| 2026-05-07 01:33 | 35.22913 | -81.86389 | 15953 ft | 338 kts | 13° |
| 2026-05-07 01:33 | 35.25113 | -81.85369 | 15300 ft | 338 kts | 13° |
| 2026-05-07 01:33 | 35.27311 | -81.84371 | 14701 ft | 335 kts | 13° |
| 2026-05-07 01:33 | 35.29498 | -81.83405 | 14140 ft | 332 kts | 13° |
| 2026-05-07 01:34 | 35.31641 | -81.82486 | 13539 ft | 330 kts | 13° |
| 2026-05-07 01:34 | 35.33805 | -81.81580 | 12910 ft | 327 kts | 13° |
| 2026-05-07 01:34 | 35.35959 | -81.80692 | 12302 ft | 324 kts | 13° |
| 2026-05-07 01:34 | 35.38083 | -81.79828 | 11709 ft | 321 kts | 13° |
| 2026-05-07 01:35 | 35.40194 | -81.78979 | 11164 ft | 317 kts | 13° |
| 2026-05-07 01:35 | 35.42281 | -81.78151 | 10607 ft | 314 kts | 13° |
| 2026-05-07 01:35 | 35.44361 | -81.77339 | 10068 ft | 311 kts | 13° |
| 2026-05-07 01:35 | 35.46408 | -81.76556 | 9505 ft | 307 kts | 13° |
| 2026-05-07 01:36 | 35.48445 | -81.75779 | 8900 ft | 306 kts | 12° |
| 2026-05-07 01:36 | 35.50480 | -81.75010 | 8289 ft | 305 kts | 13° |
| 2026-05-07 01:36 | 35.52485 | -81.74250 | 7764 ft | 302 kts | 12° |
| 2026-05-07 01:36 | 35.54489 | -81.73493 | 7256 ft | 299 kts | 12° |
| 2026-05-07 01:37 | 35.56456 | -81.72734 | 6985 ft | 290 kts | 15° |
| 2026-05-07 01:37 | 35.58107 | -81.71340 | 6963 ft | 297 kts | 47° |
| 2026-05-07 01:37 | 35.59086 | -81.69045 | 6985 ft | 309 kts | 73° |
| 2026-05-07 01:37 | 35.59517 | -81.66470 | 6989 ft | 308 kts | 83° |
| 2026-05-07 01:38 | 35.59803 | -81.63865 | 6996 ft | 309 kts | 83° |
| 2026-05-07 01:38 | 35.60164 | -81.61261 | 7002 ft | 309 kts | 79° |
| 2026-05-07 01:38 | 35.60608 | -81.58675 | 6972 ft | 310 kts | 79° |
| 2026-05-07 01:38 | 35.61026 | -81.56076 | 6973 ft | 310 kts | 81° |
| 2026-05-07 01:39 | 35.61413 | -81.53461 | 6980 ft | 310 kts | 81° |
| 2026-05-07 01:39 | 35.61812 | -81.50869 | 6983 ft | 311 kts | 80° |
| 2026-05-07 01:39 | 35.62217 | -81.48263 | 6989 ft | 311 kts | 80° |
| 2026-05-07 01:39 | 35.62621 | -81.45648 | 6988 ft | 311 kts | 80° |
| 2026-05-07 01:40 | 35.63016 | -81.43060 | 6993 ft | 311 kts | 80° |
| 2026-05-07 01:40 | 35.63419 | -81.40438 | 6993 ft | 311 kts | 80° |
| 2026-05-07 01:40 | 35.63819 | -81.37839 | 6990 ft | 310 kts | 80° |
| 2026-05-07 01:40 | 35.64216 | -81.35232 | 6988 ft | 310 kts | 80° |
| 2026-05-07 01:41 | 35.64581 | -81.32843 | 6980 ft | 311 kts | 80° |
| 2026-05-07 01:41 | 35.64844 | -81.31111 | 7147 ft | 306 kts | 80° |
| 2026-05-07 01:41 | 35.65244 | -81.28494 | 7140 ft | 315 kts | 80° |
| 2026-05-07 01:41 | 35.65644 | -81.25858 | 7109 ft | 311 kts | 80° |
| 2026-05-07 01:42 | 35.66040 | -81.23256 | 7054 ft | 311 kts | 80° |
| 2026-05-07 01:42 | 35.66439 | -81.20640 | 7000 ft | 311 kts | 80° |
| 2026-05-07 01:42 | 35.66828 | -81.18056 | 6987 ft | 309 kts | 80° |
| 2026-05-07 01:42 | 35.67225 | -81.15440 | 7002 ft | 308 kts | 81° |
| 2026-05-07 01:43 | 35.67613 | -81.12861 | 6993 ft | 312 kts | 81° |
| 2026-05-07 01:43 | 35.68011 | -81.10227 | 6998 ft | 312 kts | 80° |
| 2026-05-07 01:43 | 35.68403 | -81.07619 | 6998 ft | 309 kts | 81° |
| 2026-05-07 01:43 | 35.68795 | -81.05023 | 7002 ft | 310 kts | 81° |
| 2026-05-07 01:44 | 35.69187 | -81.02396 | 7005 ft | 312 kts | 81° |
| 2026-05-07 01:44 | 35.69582 | -80.99770 | 7005 ft | 312 kts | 80° |
| 2026-05-07 01:44 | 35.69974 | -80.97142 | 7007 ft | 311 kts | 81° |
| 2026-05-07 01:44 | 35.70366 | -80.94525 | 7025 ft | 311 kts | 81° |
| 2026-05-07 01:45 | 35.70752 | -80.91931 | 7023 ft | 311 kts | 80° |
| 2026-05-07 01:45 | 35.71143 | -80.89312 | 7024 ft | 311 kts | 80° |
| 2026-05-07 01:45 | 35.71533 | -80.86689 | 7024 ft | 312 kts | 81° |
| 2026-05-07 01:45 | 35.71922 | -80.84060 | 7023 ft | 312 kts | 81° |
| 2026-05-07 01:46 | 35.72314 | -80.81419 | 7012 ft | 313 kts | 81° |
| 2026-05-07 01:46 | 35.72705 | -80.78791 | 7009 ft | 314 kts | 81° |
| 2026-05-07 01:46 | 35.73094 | -80.76145 | 7007 ft | 314 kts | 81° |
| 2026-05-07 01:46 | 35.73482 | -80.73503 | 6998 ft | 313 kts | 81° |
| 2026-05-07 01:47 | 35.73874 | -80.70863 | 6992 ft | 313 kts | 81° |
| 2026-05-07 01:47 | 35.74485 | -80.68308 | 6979 ft | 312 kts | 62° |
| 2026-05-07 01:47 | 35.75724 | -80.66130 | 6984 ft | 310 kts | 48° |
| 2026-05-07 01:47 | 35.77132 | -80.64146 | 6983 ft | 313 kts | 46° |
| 2026-05-07 01:48 | 35.78516 | -80.62075 | 6986 ft | 313 kts | 50° |
| 2026-05-07 01:48 | 35.79819 | -80.59945 | 6988 ft | 311 kts | 51° |
| 2026-05-07 01:48 | 35.80866 | -80.57613 | 6975 ft | 313 kts | 73° |
| 2026-05-07 01:48 | 35.80912 | -80.54992 | 6978 ft | 306 kts | 108° |
| 2026-05-07 01:49 | 35.79905 | -80.52789 | 6983 ft | 291 kts | 141° |
| 2026-05-07 01:49 | 35.78246 | -80.51525 | 6987 ft | 277 kts | 167° |
| 2026-05-07 01:49 | 35.76387 | -80.51282 | 6991 ft | 265 kts | 192° |
| 2026-05-07 01:49 | 35.74685 | -80.52003 | 6993 ft | 256 kts | 215° |
| 2026-05-07 01:50 | 35.73415 | -80.53477 | 6994 ft | 250 kts | 237° |
| 2026-05-07 01:50 | 35.72748 | -80.55430 | 6995 ft | 249 kts | 258° |
| 2026-05-07 01:50 | 35.72756 | -80.57567 | 7000 ft | 251 kts | 274° |
| 2026-05-07 01:50 | 35.72987 | -80.59698 | 7002 ft | 251 kts | 274° |
| 2026-05-07 01:51 | 35.73199 | -80.61832 | 7004 ft | 251 kts | 274° |
| 2026-05-07 01:51 | 35.73407 | -80.63959 | 7008 ft | 251 kts | 274° |
| 2026-05-07 01:51 | 35.73614 | -80.66096 | 6999 ft | 251 kts | 274° |
| 2026-05-07 01:51 | 35.73819 | -80.68231 | 6997 ft | 252 kts | 274° |
| 2026-05-07 01:52 | 35.74030 | -80.70382 | 6997 ft | 253 kts | 274° |
| 2026-05-07 01:52 | 35.74266 | -80.72530 | 6989 ft | 249 kts | 275° |
| 2026-05-07 01:52 | 35.74502 | -80.74625 | 6402 ft | 250 kts | 274° |
| 2026-05-07 01:52 | 35.74689 | -80.76746 | 5920 ft | 247 kts | 272° |
| 2026-05-07 01:53 | 35.74892 | -80.78813 | 5403 ft | 246 kts | 274° |
| 2026-05-07 01:53 | 35.75102 | -80.80900 | 4874 ft | 245 kts | 272° |
| 2026-05-07 01:53 | 35.75288 | -80.82972 | 4404 ft | 242 kts | 273° |
| 2026-05-07 01:53 | 35.75496 | -80.84818 | 3881 ft | 178 kts | 272° |
| 2026-05-07 01:54 | 35.75631 | -80.86164 | 2932 ft | 142 kts | 269° |
| 2026-05-07 01:54 | 35.75728 | -80.87273 | 2113 ft | 123 kts | 269° |
| 2026-05-07 01:54 | 35.75814 | -80.88308 | 1704 ft | 120 kts | 271° |
| 2026-05-07 01:54 | 35.75918 | -80.89404 | 1673 ft | 134 kts | 273° |
| 2026-05-07 01:55 | 35.76036 | -80.90570 | 1653 ft | 141 kts | 274° |
| 2026-05-07 01:55 | 35.76158 | -80.91779 | 1449 ft | 147 kts | 274° |
| 2026-05-07 01:55 | 35.76272 | -80.93015 | 1216 ft | 141 kts | 273° |
| 2026-05-07 01:55 | 35.76388 | -80.94138 | 999 ft | 121 kts | 276° |
| 2026-05-07 01:56 | 35.76462 | -80.94956 | 965 ft | 48 kts | 274° |
| 2026-05-07 01:56 | 35.76467 | -80.95024 | 965 ft | 0 kts | 277° |